M/V Tuna — XUGC9 — position and weather

sailwx.info

Track history (hours):
 
Tides and Currents Weather Stations Pressure Air Temp Water Temp Dewpoint Dewpoint Depression Visibility Wind Speed Wind Dir Waves Ship Positions

M/V Tuna

Last reported at 2016-Feb-06 22:24 UTC. Time now 2016-Feb-14 10:08 UTC.
Position N 43°46' E 028°47'.

Length 114 m; draft 3.8 m.

Type: Ship (hazmat cat D). MMSI: 514778000.

Date/timePositionNaut miles runAvg speedWind from/ knotsBaromVisibWave heightAir tempDewpointWater temp
2016-Feb-06 22:24N 43°46' E 028°47'6 7.0
2016-Feb-06 21:33N 43°52' E 028°49'7 6.9
2016-Feb-06 20:33N 43°59' E 028°52'7 6.9
2016-Feb-06 19:33N 44°05' E 028°55'7 6.8
2016-Feb-06 18:33N 44°12' E 028°58'  
2016-Jan-30 22:33N 46°30' E 030°44'0 0.0
2016-Jan-30 21:25N 46°30' E 030°44'0 0.0
2016-Jan-30 20:34N 46°30' E 030°44'0 0.0
2016-Jan-30 19:22N 46°30' E 030°44'152 4.3
2016-Jan-29 07:33N 44°14' E 029°06'7 7.1
2016-Jan-29 06:33N 44°08' E 029°01'7 7.0
2016-Jan-29 05:33N 44°01' E 028°58'  
Track history (hours):
 
Tides and Currents Weather Stations Pressure Air Temp Water Temp Dewpoint Dewpoint Depression Visibility Wind Speed Wind Dir Waves Ship Positions

M/V Tuna

Last reported at 2016-Feb-06 22:24 UTC. Time now 2016-Feb-14 10:08 UTC.
Position N 43°46' E 028°47'.

Length 114 m; draft 3.8 m.

Type: Ship (hazmat cat D). MMSI: 514778000.

Date/timePositionNaut miles runAvg speedWind from/ knotsBaromVisibWave heightAir tempDewpointWater temp
2016-Feb-06 22:24N 43°46' E 028°47'6 7.0
2016-Feb-06 21:33N 43°52' E 028°49'7 6.9
2016-Feb-06 20:33N 43°59' E 028°52'7 6.9
2016-Feb-06 19:33N 44°05' E 028°55'7 6.8
2016-Feb-06 18:33N 44°12' E 028°58'  
2016-Jan-30 22:33N 46°30' E 030°44'0 0.0
2016-Jan-30 21:25N 46°30' E 030°44'0 0.0
2016-Jan-30 20:34N 46°30' E 030°44'0 0.0
2016-Jan-30 19:22N 46°30' E 030°44'152 4.3
2016-Jan-29 07:33N 44°14' E 029°06'7 7.1
2016-Jan-29 06:33N 44°08' E 029°01'7 7.0
2016-Jan-29 05:33N 44°01' E 028°58'  

Dump ship's entire track history